createdAt,value
2022-10-08T00:01:42.734Z,94.69
2022-10-08T00:04:12.268Z,95.10
2022-10-08T00:06:40.387Z,94.89
2022-10-08T00:09:09.798Z,95.95
2022-10-08T00:11:39.487Z,95.94
2022-10-08T00:14:08.944Z,95.82
2022-10-08T00:16:39.814Z,95.63
2022-10-08T00:19:10.268Z,96.16
2022-10-08T00:21:39.789Z,96.76
2022-10-08T00:24:10.310Z,97.38
2022-10-08T00:26:43.582Z,98.56
2022-10-08T00:29:14.445Z,98.16
2022-10-08T00:31:44.784Z,97.81
2022-10-08T00:34:15.225Z,97.92
2022-10-08T00:36:43.572Z,97.65
2022-10-08T00:39:14.938Z,97.67
2022-10-08T00:41:44.277Z,97.84
2022-10-08T00:45:01.202Z,97.97
2022-10-08T00:47:37.000Z,98.46
2022-10-08T00:50:10.387Z,99.42
2022-10-08T00:52:41.530Z,98.86
2022-10-08T00:55:11.560Z,99.21
2022-10-08T00:57:41.223Z,98.63
2022-10-08T01:00:12.413Z,99.29
2022-10-08T01:02:40.510Z,99.16
2022-10-08T01:05:09.910Z,99.28
2022-10-08T01:07:44.484Z,99.78
2022-10-08T01:10:19.719Z,100.00
2022-10-08T01:12:56.544Z,99.31
2022-10-08T01:15:29.932Z,99.25
2022-10-08T01:18:04.922Z,99.02
2022-10-08T01:20:39.753Z,99.42
2022-10-08T01:23:25.636Z,99.72
2022-10-08T01:25:58.069Z,99.40
2022-10-08T01:28:32.249Z,99.42
2022-10-08T01:31:03.323Z,99.97
2022-10-08T01:33:35.118Z,99.81
2022-10-08T01:36:05.295Z,99.74
2022-10-08T01:38:34.953Z,99.68
2022-10-08T01:41:07.382Z,99.69
2022-10-08T01:43:39.961Z,99.22
2022-10-08T01:46:12.067Z,99.24
2022-10-08T01:48:41.383Z,99.21
2022-10-08T01:51:13.944Z,99.20
2022-10-08T01:53:45.950Z,100.00
2022-10-08T01:56:17.594Z,100.00
2022-10-08T01:58:50.089Z,99.28
2022-10-08T02:01:22.522Z,99.06
2022-10-08T02:04:04.675Z,99.51
2022-10-08T02:06:37.172Z,99.93
2022-10-08T02:09:05.849Z,99.99
2022-10-08T02:11:35.893Z,99.62
2022-10-08T02:14:06.234Z,99.69
2022-10-08T02:16:34.912Z,99.54
2022-10-08T02:19:09.087Z,99.94
2022-10-08T02:21:38.720Z,100.00
2022-10-08T02:24:12.826Z,100.00
2022-10-08T02:26:45.929Z,100.00
2022-10-08T02:29:18.200Z,100.00
2022-10-08T02:31:48.650Z,100.00
2022-10-08T02:34:20.275Z,100.00
2022-10-08T02:36:50.990Z,100.00
2022-10-08T02:39:21.178Z,100.00
2022-10-08T02:41:53.088Z,100.00
2022-10-08T02:44:25.928Z,100.00
2022-10-08T02:46:55.551Z,100.00
2022-10-08T02:49:26.142Z,100.00
2022-10-08T02:51:55.074Z,100.00
2022-10-08T02:54:24.326Z,100.00
2022-10-08T02:56:55.991Z,100.00
2022-10-08T02:59:26.674Z,100.00
2022-10-08T03:01:58.668Z,100.00
2022-10-08T03:04:29.223Z,100.00
2022-10-08T03:06:58.617Z,100.00
2022-10-08T03:09:32.216Z,100.00
2022-10-08T03:12:00.647Z,100.00
2022-10-08T03:14:30.524Z,100.00
2022-10-08T03:16:58.663Z,100.00
2022-10-08T03:19:26.829Z,100.00
2022-10-08T03:21:56.272Z,100.00
2022-10-08T03:24:24.336Z,100.00
2022-10-08T03:26:53.429Z,100.00
2022-10-08T03:29:21.579Z,100.00
2022-10-08T03:31:51.573Z,100.00
2022-10-08T03:34:19.613Z,100.00
2022-10-08T03:36:47.638Z,100.00
2022-10-08T03:39:15.876Z,100.00
2022-10-08T03:41:43.868Z,100.00
2022-10-08T03:44:12.532Z,100.00
2022-10-08T03:46:46.403Z,100.00
2022-10-08T03:49:16.054Z,100.00
2022-10-08T03:51:44.060Z,100.00
2022-10-08T03:54:12.106Z,100.00
2022-10-08T03:56:40.152Z,100.00
2022-10-08T03:59:08.410Z,100.00
2022-10-08T04:01:36.602Z,100.00
2022-10-08T04:04:04.731Z,100.00
2022-10-08T04:06:34.171Z,100.00
2022-10-08T04:09:02.224Z,100.00
2022-10-08T04:11:30.449Z,100.00
2022-10-08T04:13:58.477Z,100.00
2022-10-08T04:16:26.507Z,100.00
2022-10-08T04:18:54.641Z,100.00
2022-10-08T04:21:22.693Z,100.00
2022-10-08T04:23:52.292Z,100.00
2022-10-08T04:26:20.336Z,100.00
2022-10-08T04:28:49.170Z,100.00
2022-10-08T04:31:19.277Z,100.00
2022-10-08T04:33:47.868Z,100.00
2022-10-08T04:36:17.163Z,100.00
2022-10-08T04:38:45.949Z,100.00
2022-10-08T04:41:16.772Z,100.00
2022-10-08T04:43:45.930Z,100.00
2022-10-08T04:46:15.516Z,100.00
2022-10-08T04:48:47.659Z,100.00
2022-10-08T04:51:16.192Z,100.00
2022-10-08T04:53:44.371Z,100.00
2022-10-08T04:56:15.895Z,100.00
2022-10-08T04:58:43.975Z,100.00
2022-10-08T05:01:14.542Z,100.00
2022-10-08T05:03:43.985Z,100.00
2022-10-08T05:06:12.730Z,100.00
2022-10-08T05:08:40.801Z,100.00
2022-10-08T05:11:09.265Z,100.00
2022-10-08T05:13:38.958Z,100.00
2022-10-08T05:16:08.955Z,100.00
2022-10-08T05:18:37.919Z,100.00
2022-10-08T05:21:06.838Z,100.00
2022-10-08T05:23:35.107Z,100.00
2022-10-08T05:26:03.541Z,100.00
2022-10-08T05:28:31.611Z,100.00
2022-10-08T05:31:04.231Z,100.00
2022-10-08T05:33:32.357Z,100.00
2022-10-08T05:36:04.023Z,100.00
2022-10-08T05:38:35.082Z,100.00
2022-10-08T05:41:11.605Z,100.00
2022-10-08T05:43:39.966Z,100.00
2022-10-08T05:46:09.916Z,100.00
2022-10-08T05:48:38.201Z,100.00
2022-10-08T05:51:07.269Z,100.00
2022-10-08T05:53:36.751Z,100.00
2022-10-08T05:56:06.442Z,100.00
2022-10-08T05:58:35.250Z,100.00
2022-10-08T06:01:05.393Z,100.00
2022-10-08T06:03:35.481Z,100.00
2022-10-08T06:06:04.236Z,100.00
2022-10-08T06:08:32.552Z,100.00
2022-10-08T06:11:01.238Z,100.00
2022-10-08T06:13:29.750Z,100.00
2022-10-08T06:15:58.260Z,100.00
2022-10-08T06:18:28.038Z,100.00
2022-10-08T06:20:57.497Z,100.00
2022-10-08T06:23:25.571Z,100.00
2022-10-08T06:25:53.596Z,100.00
2022-10-08T06:28:21.693Z,100.00
2022-10-08T06:30:49.773Z,100.00
2022-10-08T06:33:17.871Z,100.00
2022-10-08T06:35:45.907Z,100.00
2022-10-08T06:38:15.339Z,100.00
2022-10-08T06:40:43.391Z,100.00
2022-10-08T06:43:13.631Z,100.00
2022-10-08T06:45:43.370Z,100.00
2022-10-08T06:48:12.243Z,100.00
2022-10-08T06:50:40.985Z,100.00
2022-10-08T06:53:10.755Z,100.00
2022-10-08T06:55:40.215Z,100.00
2022-10-08T06:58:08.363Z,100.00
2022-10-08T07:00:36.454Z,100.00
2022-10-08T07:03:04.651Z,100.00
2022-10-08T07:05:34.466Z,100.00
2022-10-08T07:08:02.617Z,100.00
2022-10-08T07:10:33.235Z,100.00
2022-10-08T07:13:03.422Z,100.00
2022-10-08T07:15:32.773Z,100.00
2022-10-08T07:18:00.829Z,100.00
2022-10-08T07:20:28.853Z,100.00
2022-10-08T07:22:56.864Z,100.00
2022-10-08T07:25:24.911Z,100.00
2022-10-08T07:27:53.120Z,100.00
2022-10-08T07:30:22.562Z,100.00
2022-10-08T07:32:53.526Z,100.00
2022-10-08T07:35:21.665Z,100.00
2022-10-08T07:37:49.733Z,100.00
2022-10-08T07:40:17.816Z,100.00
2022-10-08T07:42:46.137Z,100.00
2022-10-08T07:45:14.560Z,100.00
2022-10-08T07:47:43.902Z,100.00
2022-10-08T07:50:12.104Z,100.00
2022-10-08T07:52:40.132Z,100.00
2022-10-08T07:55:09.004Z,100.00
2022-10-08T07:57:37.123Z,100.00
2022-10-08T08:00:06.053Z,100.00
2022-10-08T08:02:40.378Z,100.00
2022-10-08T08:05:10.385Z,100.00
2022-10-08T08:07:38.419Z,100.00
2022-10-08T08:10:07.560Z,100.00
2022-10-08T08:12:35.608Z,100.00
2022-10-08T08:15:04.226Z,100.00
2022-10-08T08:17:32.306Z,100.00
2022-10-08T08:20:01.613Z,100.00
2022-10-08T08:22:31.001Z,99.83
2022-10-08T08:24:59.072Z,100.00
2022-10-08T08:27:27.189Z,98.63
2022-10-08T08:29:55.234Z,98.02
2022-10-08T08:32:28.228Z,96.76
2022-10-08T08:34:56.786Z,96.19
2022-10-08T08:37:24.926Z,95.76
2022-10-08T08:39:54.337Z,95.84
2022-10-08T08:42:37.801Z,94.63
2022-10-08T08:45:34.324Z,94.66
2022-10-08T08:48:06.283Z,94.17
2022-10-08T08:50:36.336Z,93.10
2022-10-08T08:53:05.563Z,92.96
2022-10-08T08:55:37.913Z,92.78
2022-10-08T08:58:16.521Z,92.29
2022-10-08T09:00:47.224Z,91.39
2022-10-08T09:03:21.607Z,89.92
2022-10-08T09:05:59.270Z,88.96
2022-10-08T09:08:31.892Z,89.49
2022-10-08T09:11:02.953Z,88.41
2022-10-08T09:13:33.576Z,88.22
2022-10-08T09:16:02.087Z,85.98
2022-10-08T09:18:30.397Z,85.56
2022-10-08T09:20:58.534Z,84.53
2022-10-08T09:23:27.752Z,82.76
2022-10-08T09:25:59.022Z,82.56
2022-10-08T09:28:43.110Z,81.64
2022-10-08T09:31:28.356Z,81.59
2022-10-08T09:33:59.575Z,82.64
2022-10-08T09:36:46.190Z,82.49
2022-10-08T09:39:19.926Z,84.22
2022-10-08T09:41:49.325Z,84.78
2022-10-08T09:44:21.036Z,85.32
2022-10-08T09:46:49.800Z,85.70
2022-10-08T09:49:36.169Z,85.77
2022-10-08T09:52:08.086Z,85.49
2022-10-08T09:54:38.084Z,84.04
2022-10-08T09:57:07.615Z,83.92
2022-10-08T09:59:40.799Z,83.96
2022-10-08T10:02:27.724Z,82.45
2022-10-08T10:04:56.805Z,82.95
2022-10-08T10:07:25.164Z,81.79
2022-10-08T10:09:54.970Z,81.41
2022-10-08T10:12:26.321Z,81.17
2022-10-08T10:14:58.489Z,81.78
2022-10-08T10:17:35.672Z,81.35
2022-10-08T10:20:06.822Z,81.54
2022-10-08T10:22:41.378Z,79.82
2022-10-08T10:25:17.934Z,79.09
2022-10-08T10:27:51.756Z,79.23
2022-10-08T10:30:22.214Z,79.51
2022-10-08T10:32:54.257Z,79.16
2022-10-08T10:35:25.605Z,78.31
2022-10-08T10:37:58.295Z,77.99
2022-10-08T10:40:36.717Z,77.95
2022-10-08T10:43:17.594Z,76.21
2022-10-08T10:45:51.640Z,78.02
2022-10-08T10:48:19.779Z,77.83
2022-10-08T10:50:59.574Z,77.67
2022-10-08T10:53:34.959Z,77.14
2022-10-08T10:56:09.716Z,76.99
2022-10-08T10:58:45.454Z,76.54
2022-10-08T11:01:23.526Z,76.28
2022-10-08T11:04:01.795Z,75.28
2022-10-08T11:06:51.882Z,74.90
2022-10-08T11:09:25.301Z,74.24
2022-10-08T11:11:55.878Z,74.15
2022-10-08T11:14:37.704Z,73.37
2022-10-08T11:17:21.943Z,73.51
2022-10-08T11:19:57.593Z,73.25
2022-10-08T11:22:31.243Z,73.51
2022-10-08T11:25:13.862Z,72.53
2022-10-08T11:27:49.585Z,72.84
2022-10-08T11:30:20.505Z,73.13
2022-10-08T11:32:54.421Z,72.43
2022-10-08T11:35:30.109Z,72.27
2022-10-08T11:38:05.166Z,71.39
2022-10-08T11:40:36.494Z,71.37
2022-10-08T11:43:07.401Z,71.32
2022-10-08T11:45:38.245Z,70.78
2022-10-08T11:48:31.636Z,69.85
2022-10-08T11:51:38.446Z,69.22
2022-10-08T11:54:12.465Z,70.10
2022-10-08T11:56:42.849Z,69.47
2022-10-08T11:59:28.642Z,69.01
2022-10-08T12:01:58.832Z,68.47
2022-10-08T12:04:32.498Z,69.07
2022-10-08T12:07:19.232Z,69.52
2022-10-08T12:10:38.155Z,69.83
2022-10-08T12:13:28.510Z,69.98
2022-10-08T12:16:06.863Z,69.37
2022-10-08T12:18:52.998Z,69.15
2022-10-08T12:21:50.697Z,69.62
2022-10-08T12:25:00.629Z,70.01
2022-10-08T12:27:34.409Z,70.42
2022-10-08T12:30:04.776Z,70.28
2022-10-08T12:32:34.273Z,70.94
2022-10-08T12:35:02.843Z,70.74
2022-10-08T12:38:13.631Z,70.25
2022-10-08T12:40:44.258Z,70.62
2022-10-08T12:43:23.785Z,70.61
2022-10-08T12:45:58.775Z,70.78
2022-10-08T12:48:34.402Z,70.72
2022-10-08T12:51:18.103Z,69.85
2022-10-08T12:53:48.345Z,70.30
2022-10-08T12:56:19.307Z,70.10
2022-10-08T12:58:47.948Z,70.14
2022-10-08T13:01:18.592Z,69.91
2022-10-08T13:03:47.835Z,70.35
2022-10-08T13:06:18.499Z,70.13
2022-10-08T13:08:50.538Z,70.11
2022-10-08T13:11:19.509Z,70.58
2022-10-08T13:13:51.007Z,70.37
2022-10-08T13:16:21.207Z,70.27
2022-10-08T13:18:53.558Z,69.95
2022-10-08T13:21:37.680Z,69.38
2022-10-08T13:24:32.047Z,69.07
2022-10-08T13:27:00.553Z,69.27
2022-10-08T13:29:32.784Z,69.22
2022-10-08T13:32:03.247Z,69.28
2022-10-08T13:34:33.220Z,69.26
2022-10-08T13:37:03.685Z,69.39
2022-10-08T13:39:35.147Z,69.55
2022-10-08T13:42:08.463Z,69.42
2022-10-08T13:44:38.311Z,69.52
2022-10-08T13:47:09.335Z,69.67
2022-10-08T13:49:38.499Z,69.12
2022-10-08T13:52:10.125Z,69.27
2022-10-08T13:54:42.302Z,69.20
2022-10-08T13:57:10.634Z,69.21
2022-10-08T13:59:38.885Z,69.04
2022-10-08T14:02:08.056Z,68.93
2022-10-08T14:04:36.100Z,68.85
2022-10-08T14:07:04.963Z,68.61
2022-10-08T14:09:33.166Z,68.65
2022-10-08T14:12:05.313Z,68.53
2022-10-08T14:14:33.499Z,68.93
2022-10-08T14:17:01.589Z,69.28
2022-10-08T14:19:29.682Z,69.54
2022-10-08T14:21:57.934Z,69.32
2022-10-08T14:24:27.125Z,69.17
2022-10-08T14:26:55.209Z,69.27
2022-10-08T14:29:24.721Z,69.46
2022-10-08T14:31:53.710Z,69.78
2022-10-08T14:34:21.811Z,69.43
2022-10-08T14:36:55.222Z,69.11
2022-10-08T14:39:25.009Z,69.08
2022-10-08T14:41:54.047Z,69.24
2022-10-08T14:44:22.699Z,70.07
2022-10-08T14:46:53.196Z,70.70
2022-10-08T14:49:21.396Z,71.49
2022-10-08T14:51:50.434Z,71.95
2022-10-08T14:54:19.138Z,72.63
2022-10-08T14:56:48.286Z,72.98
2022-10-08T14:59:16.649Z,73.24
2022-10-08T15:01:46.436Z,73.24
2022-10-08T15:04:16.444Z,73.29
2022-10-08T15:06:44.536Z,73.86
2022-10-08T15:09:13.392Z,73.74
2022-10-08T15:11:41.517Z,74.13
2022-10-08T15:14:09.813Z,73.96
2022-10-08T15:16:39.964Z,74.06
2022-10-08T15:19:09.122Z,74.18
2022-10-08T15:21:39.797Z,74.62
2022-10-08T15:24:08.959Z,75.24
2022-10-08T15:26:38.223Z,75.51
2022-10-08T15:29:06.446Z,76.11
2022-10-08T15:31:35.608Z,76.33
2022-10-08T15:34:03.713Z,76.42
2022-10-08T15:36:34.193Z,76.69
2022-10-08T15:39:07.623Z,76.80
2022-10-08T15:41:37.151Z,77.61
2022-10-08T15:44:09.785Z,77.42
2022-10-08T15:46:39.035Z,77.97
2022-10-08T15:49:08.229Z,78.31
2022-10-08T15:51:36.289Z,78.57
2022-10-08T15:54:07.554Z,78.51
2022-10-08T15:56:36.701Z,79.07
2022-10-08T15:59:06.494Z,79.45
2022-10-08T16:01:34.803Z,79.84
2022-10-08T16:04:03.945Z,79.93
2022-10-08T16:06:35.010Z,80.35
2022-10-08T16:09:05.024Z,80.92
2022-10-08T16:11:36.353Z,80.84
2022-10-08T16:14:08.413Z,81.07
2022-10-08T16:16:36.961Z,81.49
2022-10-08T16:19:06.925Z,81.37
2022-10-08T16:21:36.109Z,81.87
2022-10-08T16:24:04.425Z,82.10
2022-10-08T16:26:33.848Z,82.05
2022-10-08T16:29:06.470Z,82.23
2022-10-08T16:31:36.175Z,82.45
2022-10-08T16:34:07.655Z,82.64
2022-10-08T16:36:37.414Z,83.46
2022-10-08T16:39:07.320Z,83.55
2022-10-08T16:41:36.542Z,83.81
2022-10-08T16:44:12.576Z,83.54
2022-10-08T16:46:42.434Z,84.24
2022-10-08T16:49:18.455Z,84.08
2022-10-08T16:51:51.781Z,84.75
2022-10-08T16:54:20.209Z,85.04
2022-10-08T16:56:48.972Z,85.40
2022-10-08T16:59:20.209Z,85.78
2022-10-08T17:01:50.944Z,85.79
2022-10-08T17:04:19.998Z,86.42
2022-10-08T17:06:49.150Z,86.35
2022-10-08T17:09:17.699Z,86.87
2022-10-08T17:11:46.153Z,87.75
2022-10-08T17:14:14.349Z,87.72
2022-10-08T17:16:46.491Z,87.93
2022-10-08T17:19:15.065Z,88.19
2022-10-08T17:21:44.964Z,88.14
2022-10-08T17:24:14.674Z,88.66
2022-10-08T17:26:44.569Z,88.50
2022-10-08T17:29:13.503Z,88.91
2022-10-08T17:31:42.995Z,89.03
2022-10-08T17:34:13.827Z,89.08
2022-10-08T17:36:44.197Z,88.83
2022-10-08T17:39:15.162Z,88.66
2022-10-08T17:41:44.658Z,88.99
2022-10-08T17:44:19.692Z,89.30
2022-10-08T17:46:49.198Z,89.47
2022-10-08T17:49:21.811Z,89.69
2022-10-08T17:51:51.484Z,89.51
2022-10-08T17:54:21.826Z,89.53
2022-10-08T17:56:52.477Z,91.09
2022-10-08T17:59:22.806Z,90.04
2022-10-08T18:01:52.442Z,89.81
2022-10-08T18:04:23.596Z,89.83
2022-10-08T18:06:52.981Z,90.11
2022-10-08T18:09:22.909Z,85.15
2022-10-08T18:11:53.738Z,79.68
2022-10-08T18:14:23.816Z,79.73
2022-10-08T18:16:52.950Z,77.80
2022-10-08T18:19:24.061Z,77.59
2022-10-08T18:21:54.832Z,76.89
2022-10-08T18:24:26.096Z,76.71
2022-10-08T18:26:59.458Z,76.64
2022-10-08T18:29:30.860Z,76.92
2022-10-08T18:31:59.918Z,77.41
2022-10-08T18:34:31.325Z,77.26
2022-10-08T18:37:00.125Z,77.17
2022-10-08T18:39:30.911Z,76.80
2022-10-08T18:42:02.300Z,77.80
2022-10-08T18:44:31.946Z,78.03
2022-10-08T18:47:05.239Z,78.56
2022-10-08T18:49:37.188Z,78.64
2022-10-08T18:52:06.520Z,78.06
2022-10-08T18:54:36.099Z,78.68
2022-10-08T18:57:05.868Z,77.84
2022-10-08T18:59:35.276Z,78.61
2022-10-08T19:02:05.729Z,78.26
2022-10-08T19:04:36.210Z,78.80
2022-10-08T19:07:05.692Z,79.14
2022-10-08T19:09:34.104Z,79.44
2022-10-08T19:12:03.735Z,78.50
2022-10-08T19:14:32.401Z,79.12
2022-10-08T19:17:02.758Z,77.95
2022-10-08T19:19:32.897Z,78.26
2022-10-08T19:22:02.911Z,78.46
2022-10-08T19:24:31.844Z,79.11
2022-10-08T19:27:00.247Z,77.77
2022-10-08T19:29:33.808Z,77.74
2022-10-08T19:32:04.084Z,78.79
2022-10-08T19:34:33.980Z,77.97
2022-10-08T19:37:05.363Z,78.12
2022-10-08T19:39:35.003Z,78.28
2022-10-08T19:42:04.844Z,78.43
2022-10-08T19:44:38.243Z,78.84
2022-10-08T19:47:08.656Z,79.07
2022-10-08T19:49:37.869Z,78.20
2022-10-08T19:52:09.380Z,78.88
2022-10-08T19:54:39.334Z,79.05
2022-10-08T19:57:09.693Z,79.33
2022-10-08T19:59:37.890Z,78.95
2022-10-08T20:02:06.160Z,79.42
2022-10-08T20:04:34.490Z,79.22
2022-10-08T20:07:02.527Z,78.97
2022-10-08T20:09:36.364Z,78.75
2022-10-08T20:12:09.151Z,79.17
2022-10-08T20:14:37.773Z,79.01
2022-10-08T20:17:06.132Z,79.20
2022-10-08T20:19:34.353Z,79.00
2022-10-08T20:22:02.675Z,78.65
2022-10-08T20:24:32.452Z,77.66
2022-10-08T20:27:00.548Z,77.19
2022-10-08T20:29:30.956Z,75.08
2022-10-08T20:32:00.752Z,73.74
2022-10-08T20:34:31.745Z,72.55
2022-10-08T20:37:01.638Z,73.03
2022-10-08T20:39:30.312Z,72.58
2022-10-08T20:42:00.185Z,72.22
2022-10-08T20:44:28.292Z,72.13
2022-10-08T20:46:56.448Z,71.77
2022-10-08T20:49:24.822Z,71.21
2022-10-08T20:51:53.048Z,71.85
2022-10-08T20:54:21.175Z,70.54
2022-10-08T20:56:49.331Z,69.01
2022-10-08T20:59:20.090Z,69.19
2022-10-08T21:01:50.396Z,69.19
2022-10-08T21:04:18.987Z,69.95
2022-10-08T21:06:49.022Z,70.15
2022-10-08T21:09:18.639Z,70.01
2022-10-08T21:11:47.142Z,68.96
2022-10-08T21:14:17.079Z,69.51
2022-10-08T21:16:46.851Z,68.54
2022-10-08T21:19:16.193Z,68.13
2022-10-08T21:21:44.459Z,67.84
2022-10-08T21:24:12.506Z,67.46
2022-10-08T21:26:42.137Z,67.33
2022-10-08T21:29:12.025Z,66.53
2022-10-08T21:31:41.921Z,66.39
2022-10-08T21:34:11.719Z,66.21
2022-10-08T21:36:41.098Z,65.38
2022-10-08T21:39:11.529Z,65.19
2022-10-08T21:41:39.543Z,65.58
2022-10-08T21:44:08.887Z,65.97
2022-10-08T21:46:39.518Z,65.58
2022-10-08T21:49:09.269Z,65.22
2022-10-08T21:51:38.667Z,65.57
2022-10-08T21:54:07.602Z,65.94
2022-10-08T21:56:38.242Z,66.15
2022-10-08T21:59:07.707Z,66.91
2022-10-08T22:01:37.893Z,66.46
2022-10-08T22:04:08.114Z,65.87
2022-10-08T22:06:39.148Z,66.69
2022-10-08T22:09:08.680Z,66.15
2022-10-08T22:11:36.716Z,67.09
2022-10-08T22:14:04.820Z,67.18
2022-10-08T22:16:32.971Z,67.88
2022-10-08T22:19:01.196Z,67.69
2022-10-08T22:21:29.520Z,67.96
2022-10-08T22:23:58.952Z,68.64
2022-10-08T22:26:29.207Z,68.39
2022-10-08T22:28:57.511Z,69.41
2022-10-08T22:31:25.661Z,68.91
2022-10-08T22:33:54.125Z,69.01
2022-10-08T22:36:23.808Z,69.52
2022-10-08T22:38:52.130Z,70.07
2022-10-08T22:41:22.723Z,69.07
2022-10-08T22:43:50.845Z,68.94
2022-10-08T22:46:20.368Z,69.08
2022-10-08T22:48:48.704Z,68.98
2022-10-08T22:51:17.767Z,69.66
2022-10-08T22:53:46.166Z,69.91
2022-10-08T22:56:17.096Z,69.84
2022-10-08T22:58:47.055Z,69.75
2022-10-08T23:01:16.591Z,69.74
2022-10-08T23:03:44.872Z,70.33
2022-10-08T23:06:15.806Z,70.24
2022-10-08T23:08:46.324Z,69.87
2022-10-08T23:11:15.478Z,70.03
2022-10-08T23:13:45.604Z,70.34
2022-10-08T23:16:16.548Z,70.32
2022-10-08T23:18:46.305Z,70.66
2022-10-08T23:21:16.633Z,70.50
2022-10-08T23:23:45.445Z,70.48
2022-10-08T23:26:14.089Z,70.68
2022-10-08T23:28:42.552Z,70.70
2022-10-08T23:31:12.735Z,70.56
2022-10-08T23:33:44.203Z,70.18
2022-10-08T23:36:14.280Z,70.42
2022-10-08T23:38:42.284Z,69.78
2022-10-08T23:41:11.559Z,70.07
2022-10-08T23:43:40.512Z,69.76
2022-10-08T23:46:09.806Z,69.62
2022-10-08T23:48:38.439Z,69.67
2022-10-08T23:51:09.186Z,69.73
2022-10-08T23:53:37.568Z,70.01
2022-10-08T23:56:06.613Z,69.37
2022-10-08T23:58:34.844Z,68.92
